createdAt,value
2018-06-17T00:02:15.092Z,19.72
2018-06-17T00:04:44.072Z,19.68
2018-06-17T00:07:12.104Z,19.63
2018-06-17T00:09:40.552Z,19.58
2018-06-17T00:12:09.417Z,19.23
2018-06-17T00:14:38.033Z,19.47
2018-06-17T00:17:06.403Z,19.33
2018-06-17T00:19:34.977Z,19.41
2018-06-17T00:22:03.368Z,19.36
2018-06-17T00:24:32.061Z,19.32
2018-06-17T00:27:00.727Z,19.29
2018-06-17T00:29:29.129Z,19.26
2018-06-17T00:31:57.483Z,19.21
2018-06-17T00:34:26.119Z,19.16
2018-06-17T00:36:54.465Z,19.13
2018-06-17T00:39:22.928Z,19.09
2018-06-17T00:41:51.666Z,19.05
2018-06-17T00:44:20.527Z,18.81
2018-06-17T00:46:48.832Z,18.86
2018-06-17T00:49:17.784Z,18.95
2018-06-17T00:51:45.889Z,18.91
2018-06-17T00:54:14.337Z,18.87
2018-06-17T00:56:43.029Z,18.85
2018-06-17T00:59:11.400Z,18.79
2018-06-17T01:01:39.965Z,18.78
2018-06-17T01:04:08.280Z,18.76
2018-06-17T01:06:36.616Z,18.60
2018-06-17T01:09:06.339Z,18.69
2018-06-17T01:11:37.076Z,18.68
2018-06-17T01:14:05.601Z,18.68
2018-06-17T01:17:59.029Z,18.69
2018-06-17T01:20:27.839Z,18.64
2018-06-17T01:22:56.715Z,18.57
2018-06-17T01:25:25.351Z,18.49
2018-06-17T01:27:53.824Z,18.44
2018-06-17T01:30:22.739Z,18.39
2018-06-17T01:32:51.285Z,18.32
2018-06-17T01:35:19.621Z,17.96
2018-06-17T01:37:48.303Z,18.26
2018-06-17T01:40:16.836Z,18.22
2018-06-17T01:42:45.198Z,18.20
2018-06-17T01:45:14.217Z,18.18
2018-06-17T01:47:43.057Z,18.15
2018-06-17T01:50:11.421Z,18.09
2018-06-17T01:52:42.631Z,18.08
2018-06-17T01:55:13.463Z,18.04
2018-06-17T01:57:41.836Z,17.96
2018-06-17T02:00:10.989Z,17.90
2018-06-17T02:02:39.328Z,17.87
2018-06-17T02:05:13.298Z,17.84
2018-06-17T02:07:47.594Z,17.81
2018-06-17T02:10:21.601Z,17.78
2018-06-17T02:12:50.376Z,17.75
2018-06-17T02:15:18.823Z,17.70
2018-06-17T02:17:47.292Z,17.65
2018-06-17T02:20:16.213Z,17.62
2018-06-17T02:22:44.229Z,17.60
2018-06-17T02:25:12.548Z,17.57
2018-06-17T02:27:41.081Z,17.50
2018-06-17T02:30:09.757Z,17.43
2018-06-17T02:32:37.890Z,17.37
2018-06-17T02:35:06.880Z,17.35
2018-06-17T02:37:35.609Z,17.38
2018-06-17T02:40:04.045Z,17.43
2018-06-17T02:42:33.063Z,17.47
2018-06-17T02:45:06.679Z,17.50
2018-06-17T02:47:40.620Z,17.52
2018-06-17T02:50:14.757Z,17.53
2018-06-17T02:52:48.760Z,17.52
2018-06-17T02:55:17.136Z,17.51
2018-06-17T02:57:45.969Z,17.52
2018-06-17T03:00:14.264Z,17.51
2018-06-17T03:02:42.766Z,17.52
2018-06-17T03:05:11.460Z,17.54
2018-06-17T03:07:40.175Z,17.55
2018-06-17T03:10:08.601Z,17.57
2018-06-17T03:12:37.256Z,17.57
2018-06-17T03:15:05.776Z,17.59
2018-06-17T03:17:34.334Z,17.61
2018-06-17T03:20:03.164Z,17.63
2018-06-17T03:22:31.926Z,17.63
2018-06-17T03:25:05.688Z,17.63
2018-06-17T03:27:40.304Z,17.61
2018-06-17T03:30:14.275Z,17.63
2018-06-17T03:32:48.392Z,17.62
2018-06-17T03:35:22.177Z,17.60
2018-06-17T03:37:50.554Z,17.59
2018-06-17T03:40:19.449Z,17.58
2018-06-17T03:42:47.775Z,17.58
2018-06-17T03:45:16.164Z,17.57
2018-06-17T03:47:44.856Z,17.56
2018-06-17T03:50:15.253Z,17.61
2018-06-17T03:52:43.665Z,17.64
2018-06-17T03:55:12.343Z,17.68
2018-06-17T03:57:42.392Z,17.76
2018-06-17T04:00:10.517Z,17.82
2018-06-17T04:02:39.004Z,17.88
2018-06-17T04:05:12.937Z,17.94
2018-06-17T04:07:41.294Z,17.97
2018-06-17T04:10:10.521Z,17.89
2018-06-17T04:12:39.073Z,17.77
2018-06-17T04:15:08.079Z,17.97
2018-06-17T04:17:37.083Z,17.89
2018-06-17T04:20:05.579Z,17.90
2018-06-17T04:22:33.976Z,18.06
2018-06-17T04:25:03.771Z,18.09
2018-06-17T04:27:33.418Z,18.13
2018-06-17T04:30:01.807Z,18.16
2018-06-17T04:32:30.849Z,18.17
2018-06-17T04:34:59.230Z,18.20
2018-06-17T04:37:27.751Z,18.24
2018-06-17T04:39:56.312Z,18.29
2018-06-17T04:42:24.380Z,18.35
2018-06-17T04:44:52.864Z,18.42
2018-06-17T04:47:21.785Z,18.46
2018-06-17T04:49:50.210Z,18.51
2018-06-17T04:52:19.334Z,18.52
2018-06-17T04:54:47.738Z,18.50
2018-06-17T04:57:15.942Z,18.47
2018-06-17T04:59:44.389Z,18.43
2018-06-17T05:02:12.769Z,18.42
2018-06-17T05:04:41.648Z,18.41
2018-06-17T05:07:09.840Z,18.42
2018-06-17T05:09:38.561Z,18.42
2018-06-17T05:12:11.472Z,18.45
2018-06-17T05:14:39.701Z,18.48
2018-06-17T05:17:08.041Z,18.51
2018-06-17T05:19:36.696Z,18.55
2018-06-17T05:22:05.508Z,18.57
2018-06-17T05:24:35.048Z,18.60
2018-06-17T05:27:03.397Z,18.64
2018-06-17T05:29:31.937Z,18.68
2018-06-17T05:32:00.297Z,18.73
2018-06-17T05:34:28.997Z,18.76
2018-06-17T05:36:57.282Z,18.81
2018-06-17T05:39:26.115Z,18.90
2018-06-17T05:41:55.718Z,18.98
2018-06-17T05:44:24.150Z,19.08
2018-06-17T05:46:52.753Z,18.92
2018-06-17T05:49:21.093Z,19.25
2018-06-17T05:51:50.837Z,19.34
2018-06-17T05:54:21.219Z,19.44
2018-06-17T05:56:50.130Z,19.54
2018-06-17T05:59:23.585Z,19.68
2018-06-17T06:01:51.738Z,19.82
2018-06-17T06:04:19.996Z,19.93
2018-06-17T06:06:48.678Z,20.03
2018-06-17T06:09:18.084Z,20.13
2018-06-17T06:11:46.947Z,20.28
2018-06-17T06:14:15.170Z,20.48
2018-06-17T06:16:44.147Z,20.70
2018-06-17T06:19:12.828Z,20.80
2018-06-17T06:21:41.273Z,20.75
2018-06-17T06:24:10.309Z,20.63
2018-06-17T06:26:39.268Z,20.50
2018-06-17T06:29:07.845Z,20.43
2018-06-17T06:31:36.665Z,20.40
2018-06-17T06:34:04.949Z,20.40
2018-06-17T06:36:33.177Z,20.43
2018-06-17T06:39:02.026Z,20.43
2018-06-17T06:41:30.976Z,20.46
2018-06-17T06:44:01.032Z,20.53
2018-06-17T06:46:30.297Z,20.62
2018-06-17T06:48:58.331Z,20.72
2018-06-17T06:51:27.054Z,20.78
2018-06-17T06:53:59.595Z,20.87
2018-06-17T06:56:28.340Z,20.99
2018-06-17T06:58:57.029Z,21.13
2018-06-17T07:01:36.971Z,21.29
2018-06-17T07:04:16.005Z,21.47
2018-06-17T07:06:55.747Z,21.61
2018-06-17T07:09:35.529Z,21.54
2018-06-17T07:12:03.817Z,21.79
2018-06-17T07:14:32.199Z,21.69
2018-06-17T07:17:11.775Z,21.57
2018-06-17T07:19:40.304Z,21.47
2018-06-17T07:22:08.386Z,21.44
2018-06-17T07:24:37.775Z,21.49
2018-06-17T07:27:17.078Z,21.50
2018-06-17T07:29:46.873Z,21.38
2018-06-17T07:32:16.327Z,21.15
2018-06-17T07:34:45.705Z,21.18
2018-06-17T07:37:14.793Z,20.78
2018-06-17T07:40:19.317Z,21.26
2018-06-17T07:42:50.663Z,21.20
2018-06-17T07:45:19.232Z,21.88
2018-06-17T07:47:56.393Z,22.13
2018-06-17T07:50:35.854Z,22.43
2018-06-17T07:53:16.712Z,22.47
2018-06-17T07:55:45.229Z,22.39
2018-06-17T07:58:14.360Z,22.24
2018-06-17T08:00:43.174Z,22.03
2018-06-17T08:03:11.597Z,21.90
2018-06-17T08:05:39.765Z,21.83
2018-06-17T08:08:08.789Z,20.69
2018-06-17T08:10:39.295Z,21.20
2018-06-17T08:13:10.906Z,21.74
2018-06-17T08:15:40.760Z,21.76
2018-06-17T08:18:09.376Z,21.50
2018-06-17T08:20:38.610Z,21.24
2018-06-17T08:23:07.664Z,21.12
2018-06-17T08:25:36.860Z,21.30
2018-06-17T08:28:06.605Z,21.64
2018-06-17T08:30:37.431Z,21.75
2018-06-17T08:33:06.328Z,21.90
2018-06-17T08:35:39.661Z,21.95
2018-06-17T08:38:09.339Z,21.91
2018-06-17T08:40:40.525Z,21.74
2018-06-17T08:43:09.998Z,21.74
2018-06-17T08:45:40.206Z,21.47
2018-06-17T08:48:09.510Z,21.63
2018-06-17T08:50:38.144Z,21.62
2018-06-17T08:53:07.593Z,21.57
2018-06-17T08:55:35.966Z,21.54
2018-06-17T08:58:04.435Z,21.60
2018-06-17T09:00:33.162Z,21.54
2018-06-17T09:03:02.388Z,21.98
2018-06-17T09:05:30.728Z,22.23
2018-06-17T09:07:59.051Z,22.45
2018-06-17T09:10:27.498Z,22.61
2018-06-17T09:12:55.609Z,22.78
2018-06-17T09:15:24.161Z,22.86
2018-06-17T09:17:53.479Z,22.94
2018-06-17T09:20:22.289Z,22.96
2018-06-17T09:22:50.387Z,23.02
2018-06-17T09:25:18.679Z,23.05
2018-06-17T09:27:47.876Z,23.04
2018-06-17T09:30:17.042Z,23.12
2018-06-17T09:32:45.589Z,23.26
2018-06-17T09:35:13.801Z,23.38
2018-06-17T09:37:42.024Z,23.75
2018-06-17T09:40:10.147Z,24.21
2018-06-17T09:42:38.237Z,25.05
2018-06-17T09:45:06.934Z,25.52
2018-06-17T09:47:35.323Z,25.97
2018-06-17T09:50:03.676Z,26.50
2018-06-17T09:52:32.084Z,26.98
2018-06-17T09:55:00.578Z,27.65
2018-06-17T09:57:28.805Z,27.90
2018-06-17T09:59:57.370Z,27.84
2018-06-17T10:02:25.826Z,27.55
2018-06-17T10:04:54.690Z,27.66
2018-06-17T10:07:23.713Z,27.84
2018-06-17T10:10:03.094Z,27.70
2018-06-17T10:12:32.288Z,27.28
2018-06-17T10:15:01.432Z,26.74
2018-06-17T10:17:30.638Z,26.10
2018-06-17T10:20:05.327Z,25.72
2018-06-17T10:22:36.054Z,24.46
2018-06-17T10:25:09.393Z,25.41
2018-06-17T10:27:37.753Z,25.53
2018-06-17T10:30:07.396Z,25.31
2018-06-17T10:32:36.633Z,24.50
2018-06-17T10:35:05.654Z,26.20
2018-06-17T10:37:35.991Z,26.81
2018-06-17T10:40:04.809Z,27.33
2018-06-17T10:42:33.305Z,27.83
2018-06-17T10:45:01.781Z,28.31
2018-06-17T10:47:30.045Z,28.55
2018-06-17T10:49:58.150Z,28.32
2018-06-17T10:52:26.225Z,28.29
2018-06-17T10:54:54.612Z,28.08
2018-06-17T10:57:23.667Z,28.04
2018-06-17T10:59:51.841Z,27.81
2018-06-17T11:02:19.952Z,27.86
2018-06-17T11:04:48.341Z,27.35
2018-06-17T11:07:16.462Z,27.66
2018-06-17T11:09:44.614Z,27.76
2018-06-17T11:12:13.187Z,27.99
2018-06-17T11:14:41.349Z,28.15
2018-06-17T11:17:09.740Z,28.53
2018-06-17T11:19:38.515Z,28.82
2018-06-17T11:22:06.660Z,28.87
2018-06-17T11:24:34.856Z,29.01
2018-06-17T11:27:03.380Z,29.14
2018-06-17T11:29:31.475Z,28.81
2018-06-17T11:31:59.561Z,28.41
2018-06-17T11:34:28.051Z,28.10
2018-06-17T11:36:56.150Z,28.10
2018-06-17T11:39:24.565Z,28.71
2018-06-17T11:41:53.269Z,28.94
2018-06-17T11:44:21.561Z,28.68
2018-06-17T11:46:49.767Z,27.98
2018-06-17T11:49:17.862Z,28.34
2018-06-17T11:51:46.039Z,28.19
2018-06-17T11:54:14.336Z,28.26
2018-06-17T11:56:42.918Z,28.39
2018-06-17T11:59:11.221Z,28.45
2018-06-17T12:01:39.408Z,28.54
2018-06-17T12:04:07.725Z,28.63
2018-06-17T12:06:37.346Z,28.55
2018-06-17T12:09:09.492Z,28.67
2018-06-17T12:11:38.489Z,28.98
2018-06-17T12:14:06.919Z,29.32
2018-06-17T12:16:35.472Z,29.34
2018-06-17T12:19:04.180Z,29.38
2018-06-17T12:21:32.414Z,29.05
2018-06-17T12:24:00.540Z,28.95
2018-06-17T12:26:29.528Z,28.37
2018-06-17T12:28:57.785Z,28.65
2018-06-17T12:31:26.289Z,28.56
2018-06-17T12:33:54.540Z,28.43
2018-06-17T12:36:22.720Z,28.07
2018-06-17T12:38:50.869Z,27.70
2018-06-17T12:41:19.172Z,27.45
2018-06-17T12:43:47.248Z,27.32
2018-06-17T12:46:16.560Z,27.24
2018-06-17T12:48:44.798Z,27.51
2018-06-17T12:51:13.255Z,27.60
2018-06-17T12:53:41.812Z,27.64
2018-06-17T12:56:09.998Z,27.51
2018-06-17T12:58:38.579Z,27.25
2018-06-17T13:01:07.184Z,26.98
2018-06-17T13:03:35.346Z,27.20
2018-06-17T13:06:04.100Z,27.72
2018-06-17T13:08:32.332Z,27.95
2018-06-17T13:11:00.629Z,27.96
2018-06-17T13:13:29.402Z,27.48
2018-06-17T13:15:57.837Z,27.82
2018-06-17T13:18:26.495Z,27.64
2018-06-17T13:20:54.780Z,27.39
2018-06-17T13:23:23.383Z,27.08
2018-06-17T13:25:51.791Z,26.93
2018-06-17T13:28:19.987Z,26.80
2018-06-17T13:30:48.076Z,26.63
2018-06-17T13:33:16.527Z,26.69
2018-06-17T13:35:45.702Z,26.82
2018-06-17T13:38:14.257Z,26.83
2018-06-17T13:40:43.282Z,26.83
2018-06-17T13:43:11.437Z,26.92
2018-06-17T13:45:39.573Z,27.35
2018-06-17T13:48:09.031Z,26.86
2018-06-17T13:50:37.780Z,27.30
2018-06-17T13:53:05.944Z,26.94
2018-06-17T13:55:34.509Z,26.59
2018-06-17T13:58:02.916Z,26.42
2018-06-17T14:00:31.260Z,26.40
2018-06-17T14:02:59.861Z,26.59
2018-06-17T14:05:28.089Z,27.11
2018-06-17T14:07:56.224Z,27.26
2018-06-17T14:10:24.698Z,27.41
2018-06-17T14:12:53.072Z,27.64
2018-06-17T14:15:21.287Z,27.70
2018-06-17T14:17:49.395Z,27.56
2018-06-17T14:20:18.079Z,27.63
2018-06-17T14:22:46.268Z,27.40
2018-06-17T14:25:14.837Z,27.27
2018-06-17T14:27:42.966Z,27.39
2018-06-17T14:30:11.121Z,27.73
2018-06-17T14:32:40.081Z,27.73
2018-06-17T14:35:08.281Z,27.55
2018-06-17T14:37:36.544Z,27.50
2018-06-17T14:40:05.257Z,27.67
2018-06-17T14:42:38.801Z,27.85
2018-06-17T14:45:12.329Z,28.31
2018-06-17T14:47:46.213Z,28.28
2018-06-17T14:50:19.843Z,28.26
2018-06-17T14:52:53.589Z,28.17
2018-06-17T14:55:21.981Z,27.74
2018-06-17T14:57:50.117Z,27.24
2018-06-17T15:00:18.448Z,26.68
2018-06-17T15:02:47.004Z,26.72
2018-06-17T15:05:15.462Z,27.01
2018-06-17T15:07:43.733Z,27.40
2018-06-17T15:10:11.888Z,27.61
2018-06-17T15:12:40.145Z,27.58
2018-06-17T15:15:10.420Z,27.41
2018-06-17T15:17:38.581Z,27.33
2018-06-17T15:20:06.740Z,26.95
2018-06-17T15:22:35.528Z,26.76
2018-06-17T15:25:04.459Z,26.37
2018-06-17T15:27:32.644Z,26.09
2018-06-17T15:30:00.960Z,26.24
2018-06-17T15:32:34.559Z,26.29
2018-06-17T15:35:08.225Z,26.58
2018-06-17T15:37:41.824Z,26.88
2018-06-17T15:40:10.447Z,26.65
2018-06-17T15:42:38.627Z,26.51
2018-06-17T15:45:07.061Z,26.42
2018-06-17T15:47:35.573Z,26.35
2018-06-17T15:50:04.064Z,26.50
2018-06-17T15:52:33.431Z,26.55
2018-06-17T15:55:03.594Z,26.78
2018-06-17T15:57:31.861Z,26.94
2018-06-17T16:00:00.265Z,26.99
2018-06-17T16:02:28.802Z,27.03
2018-06-17T16:04:57.345Z,27.07
2018-06-17T16:07:25.607Z,27.05
2018-06-17T16:09:53.909Z,26.95
2018-06-17T16:12:27.490Z,27.24
2018-06-17T16:15:01.486Z,27.27
2018-06-17T16:17:35.405Z,27.16
2018-06-17T16:20:10.038Z,27.18
2018-06-17T16:22:38.281Z,27.16
2018-06-17T16:25:06.521Z,26.98
2018-06-17T16:27:37.009Z,26.75
2018-06-17T16:30:05.837Z,26.58
2018-06-17T16:32:34.105Z,26.45
2018-06-17T16:35:02.290Z,26.26
2018-06-17T16:37:30.624Z,26.01
2018-06-17T16:39:59.529Z,25.69
2018-06-17T16:42:28.250Z,25.47
2018-06-17T16:44:56.407Z,25.28
2018-06-17T16:47:25.065Z,25.07
2018-06-17T16:49:53.393Z,24.61
2018-06-17T16:52:26.998Z,24.75
2018-06-17T16:55:01.171Z,24.58
2018-06-17T16:57:34.774Z,24.43
2018-06-17T17:00:10.547Z,24.28
2018-06-17T17:02:38.659Z,24.19
2018-06-17T17:05:06.773Z,24.09
2018-06-17T17:07:35.705Z,23.91
2018-06-17T17:10:04.678Z,23.57
2018-06-17T17:12:33.096Z,23.83
2018-06-17T17:15:01.507Z,23.78
2018-06-17T17:17:30.098Z,23.74
2018-06-17T17:19:58.910Z,23.27
2018-06-17T17:22:27.722Z,23.64
2018-06-17T17:24:56.698Z,23.58
2018-06-17T17:27:25.453Z,23.17
2018-06-17T17:29:53.964Z,23.53
2018-06-17T17:32:27.725Z,23.53
2018-06-17T17:35:01.254Z,23.47
2018-06-17T17:37:35.194Z,23.29
2018-06-17T17:40:10.046Z,23.41
2018-06-17T17:42:40.836Z,23.20
2018-06-17T17:45:15.956Z,23.38
2018-06-17T17:47:44.632Z,22.95
2018-06-17T17:50:17.335Z,22.37
2018-06-17T17:52:46.433Z,23.31
2018-06-17T17:55:25.027Z,23.31
2018-06-17T17:58:05.060Z,22.53
2018-06-17T18:00:37.660Z,23.33
2018-06-17T18:03:07.125Z,23.29
2018-06-17T18:05:45.461Z,23.26
2018-06-17T18:08:16.147Z,22.82
2018-06-17T18:10:52.404Z,21.78
2018-06-17T18:13:21.348Z,23.06
2018-06-17T18:15:53.564Z,23.03
2018-06-17T18:18:25.022Z,23.01
2018-06-17T18:20:55.024Z,22.97
2018-06-17T18:23:37.740Z,21.68
2018-06-17T18:26:14.626Z,22.85
2018-06-17T18:28:57.508Z,22.96
2018-06-17T18:31:29.776Z,22.92
2018-06-17T18:34:10.370Z,22.89
2018-06-17T18:36:39.298Z,22.85
2018-06-17T18:39:08.272Z,22.61
2018-06-17T18:41:37.405Z,22.76
2018-06-17T18:44:06.173Z,22.72
2018-06-17T18:46:34.261Z,22.67
2018-06-17T18:49:02.763Z,22.67
2018-06-17T18:51:31.389Z,22.62
2018-06-17T18:53:59.585Z,22.58
2018-06-17T18:56:27.849Z,22.45
2018-06-17T18:58:56.259Z,22.42
2018-06-17T19:01:24.464Z,22.49
2018-06-17T19:03:52.757Z,22.47
2018-06-17T19:06:21.169Z,22.44
2018-06-17T19:08:54.862Z,22.41
2018-06-17T19:11:29.679Z,22.37
2018-06-17T19:14:04.671Z,22.33
2018-06-17T19:16:38.358Z,22.25
2018-06-17T19:19:07.161Z,22.17
2018-06-17T19:21:35.590Z,21.93
2018-06-17T19:24:04.011Z,22.10
2018-06-17T19:26:32.335Z,22.03
2018-06-17T19:29:00.470Z,22.00
2018-06-17T19:31:30.722Z,21.44
2018-06-17T19:34:00.795Z,21.93
2018-06-17T19:36:29.215Z,21.90
2018-06-17T19:38:57.782Z,21.86
2018-06-17T19:41:31.919Z,21.83
2018-06-17T19:44:00.286Z,21.80
2018-06-17T19:46:28.701Z,21.77
2018-06-17T19:48:57.675Z,21.74
2018-06-17T19:51:31.288Z,21.70
2018-06-17T19:54:07.372Z,21.65
2018-06-17T19:56:41.134Z,21.60
2018-06-17T19:59:15.160Z,21.56
2018-06-17T20:01:44.560Z,21.55
2018-06-17T20:04:12.758Z,21.33
2018-06-17T20:06:41.525Z,21.39
2018-06-17T20:09:12.890Z,21.46
2018-06-17T20:11:41.427Z,21.45
2018-06-17T20:14:10.384Z,21.37
2018-06-17T20:16:38.610Z,21.44
2018-06-17T20:19:08.213Z,21.43
2018-06-17T20:21:37.659Z,21.41
2018-06-17T20:24:06.065Z,21.39
2018-06-17T20:26:34.717Z,21.38
2018-06-17T20:29:02.871Z,21.36
2018-06-17T20:31:31.054Z,21.24
2018-06-17T20:34:05.071Z,21.33
2018-06-17T20:36:39.498Z,21.21
2018-06-17T20:39:14.467Z,21.29
2018-06-17T20:41:48.053Z,20.96
2018-06-17T20:44:16.763Z,21.11
2018-06-17T20:46:45.153Z,21.16
2018-06-17T20:49:15.924Z,21.11
2018-06-17T20:51:44.499Z,21.06
2018-06-17T20:54:13.041Z,21.01
2018-06-17T20:56:41.328Z,20.97
2018-06-17T20:59:09.914Z,20.81
2018-06-17T21:01:38.069Z,20.76
2018-06-17T21:04:06.651Z,20.80
2018-06-17T21:06:36.032Z,20.55
2018-06-17T21:09:06.237Z,20.66
2018-06-17T21:11:34.387Z,20.51
2018-06-17T21:14:03.427Z,20.56
2018-06-17T21:16:31.682Z,20.24
2018-06-17T21:19:05.223Z,20.53
2018-06-17T21:23:39.804Z,20.51
2018-06-17T21:26:13.830Z,20.51
2018-06-17T21:28:42.035Z,20.40
2018-06-17T21:31:10.143Z,20.49
2018-06-17T21:33:38.482Z,20.37
2018-06-17T21:36:06.784Z,20.46
2018-06-17T21:38:35.772Z,20.44
2018-06-17T21:41:04.235Z,20.40
2018-06-17T21:43:32.727Z,20.18
2018-06-17T21:46:01.099Z,20.38
2018-06-17T21:48:29.165Z,20.34
2018-06-17T21:50:57.320Z,20.30
2018-06-17T21:53:25.868Z,20.15
2018-06-17T21:55:54.361Z,20.21
2018-06-17T21:58:27.812Z,20.15
2018-06-17T22:00:55.932Z,20.10
2018-06-17T22:03:24.088Z,20.07
2018-06-17T22:05:52.584Z,19.95
2018-06-17T22:08:26.409Z,20.01
2018-06-17T22:11:00.181Z,19.85
2018-06-17T22:13:32.716Z,19.91
2018-06-17T22:16:06.181Z,19.86
2018-06-17T22:18:34.551Z,19.80
2018-06-17T22:21:02.668Z,19.56
2018-06-17T22:23:30.704Z,19.67
2018-06-17T22:25:58.779Z,19.61
2018-06-17T22:28:27.127Z,19.44
2018-06-17T22:30:55.385Z,19.37
2018-06-17T22:33:23.758Z,19.32
2018-06-17T22:35:51.830Z,19.38
2018-06-17T22:38:19.936Z,19.33
2018-06-17T22:40:48.064Z,19.28
2018-06-17T22:43:16.101Z,19.15
2018-06-17T22:45:44.801Z,19.23
2018-06-17T22:48:12.903Z,19.21
2018-06-17T22:50:41.061Z,19.10
2018-06-17T22:53:20.368Z,19.21
2018-06-17T22:55:48.732Z,19.13
2018-06-17T22:58:22.641Z,19.25
2018-06-17T23:00:56.207Z,19.26
2018-06-17T23:03:29.600Z,19.26
2018-06-17T23:06:03.081Z,19.27
2018-06-17T23:08:36.660Z,19.25
2018-06-17T23:11:04.845Z,19.15
2018-06-17T23:13:33.497Z,19.06
2018-06-17T23:16:01.637Z,19.19
2018-06-17T23:18:29.952Z,19.21
2018-06-17T23:20:58.005Z,19.23
2018-06-17T23:23:26.147Z,19.32
2018-06-17T23:25:54.257Z,19.33
2018-06-17T23:28:22.458Z,19.30
2018-06-17T23:30:50.746Z,19.11
2018-06-17T23:33:18.860Z,19.34
2018-06-17T23:35:47.373Z,19.31
2018-06-17T23:38:15.728Z,19.27
2018-06-17T23:40:44.116Z,19.25
2018-06-17T23:43:12.189Z,19.22
2018-06-17T23:45:48.971Z,19.18
2018-06-17T23:48:23.450Z,19.16
